createdAt,value
2022-12-18T00:01:17.257Z,5.77
2022-12-18T00:03:45.610Z,6.33
2022-12-18T00:06:14.877Z,6.43
2022-12-18T00:08:42.518Z,7.67
2022-12-18T00:11:12.831Z,7.00
2022-12-18T00:13:41.264Z,6.67
2022-12-18T00:16:12.512Z,5.90
2022-12-18T00:18:40.810Z,5.90
2022-12-18T00:21:09.948Z,5.57
2022-12-18T00:23:38.525Z,6.20
2022-12-18T00:26:07.318Z,6.83
2022-12-18T00:28:35.343Z,6.93
2022-12-18T00:31:03.299Z,7.77
2022-12-18T00:33:32.428Z,6.30
2022-12-18T00:36:02.641Z,7.07
2022-12-18T00:38:30.252Z,7.13
2022-12-18T00:40:57.933Z,8.50
2022-12-18T00:43:24.688Z,7.07
2022-12-18T00:45:52.621Z,7.13
2022-12-18T00:48:20.285Z,6.47
2022-12-18T00:50:49.607Z,7.73
2022-12-18T00:53:17.443Z,7.40
2022-12-18T00:55:45.600Z,5.87
2022-12-18T00:58:14.272Z,5.90
2022-12-18T01:00:42.399Z,6.10
2022-12-18T01:03:10.231Z,5.97
2022-12-18T01:05:41.213Z,6.90
2022-12-18T01:08:10.222Z,7.20
2022-12-18T01:10:37.899Z,8.57
2022-12-18T01:13:05.566Z,8.53
2022-12-18T01:15:33.609Z,6.10
2022-12-18T01:18:01.824Z,6.37
2022-12-18T01:20:29.684Z,7.23
2022-12-18T01:22:57.339Z,6.97
2022-12-18T01:25:26.333Z,6.93
2022-12-18T01:27:54.100Z,9.03
2022-12-18T01:30:21.758Z,7.47
2022-12-18T01:32:49.389Z,7.53
2022-12-18T01:35:17.221Z,7.07
2022-12-18T01:37:44.833Z,9.00
2022-12-18T01:40:12.651Z,10.97
2022-12-18T01:42:41.838Z,10.27
2022-12-18T01:45:24.648Z,8.73
2022-12-18T01:47:53.615Z,9.33
2022-12-18T01:50:22.435Z,9.90
2022-12-18T01:52:52.024Z,8.10
2022-12-18T01:55:21.331Z,7.97
2022-12-18T01:57:51.654Z,10.43
2022-12-18T02:00:20.530Z,7.33
2022-12-18T02:02:49.013Z,10.17
2022-12-18T02:05:18.606Z,9.47
2022-12-18T02:07:51.716Z,9.43
2022-12-18T02:10:21.939Z,6.80
2022-12-18T02:12:54.882Z,7.77
2022-12-18T02:15:26.327Z,8.43
2022-12-18T02:17:56.757Z,8.33
2022-12-18T02:20:26.710Z,7.77
2022-12-18T02:23:03.158Z,7.40
2022-12-18T02:25:38.091Z,6.70
2022-12-18T02:28:09.295Z,8.10
2022-12-18T02:30:37.528Z,7.13
2022-12-18T02:33:06.981Z,7.00
2022-12-18T02:35:35.547Z,7.07
2022-12-18T02:38:03.916Z,9.10
2022-12-18T02:40:32.146Z,6.60
2022-12-18T02:43:04.442Z,6.47
2022-12-18T02:45:33.534Z,6.20
2022-12-18T02:48:01.254Z,7.80
2022-12-18T02:50:32.799Z,5.53
2022-12-18T02:53:06.003Z,8.17
2022-12-18T02:55:41.743Z,8.07
2022-12-18T02:58:14.867Z,7.47
2022-12-18T03:00:46.274Z,6.90
2022-12-18T03:03:16.970Z,8.17
2022-12-18T03:05:46.810Z,6.80
2022-12-18T03:08:17.977Z,7.60
2022-12-18T03:10:47.901Z,8.70
2022-12-18T03:13:16.258Z,7.60
2022-12-18T03:15:47.911Z,8.70
2022-12-18T03:18:24.751Z,8.37
2022-12-18T03:20:53.952Z,8.43
2022-12-18T03:23:26.264Z,10.07
2022-12-18T03:25:56.985Z,6.80
2022-12-18T03:28:25.049Z,7.40
2022-12-18T03:30:57.847Z,8.50
2022-12-18T03:33:27.982Z,7.53
2022-12-18T03:35:55.628Z,8.10
2022-12-18T03:38:23.400Z,7.43
2022-12-18T03:40:55.894Z,7.13
2022-12-18T03:43:31.801Z,7.40
2022-12-18T03:46:03.326Z,9.33
2022-12-18T03:48:33.490Z,9.03
2022-12-18T03:51:03.601Z,6.63
2022-12-18T03:53:35.521Z,6.80
2022-12-18T03:56:04.238Z,10.13
2022-12-18T03:58:32.734Z,7.80
2022-12-18T04:01:04.417Z,6.50
2022-12-18T04:03:33.894Z,7.37
2022-12-18T04:06:02.266Z,7.80
2022-12-18T04:08:30.374Z,8.57
2022-12-18T04:10:58.036Z,10.67
2022-12-18T04:13:26.085Z,9.17
2022-12-18T04:15:53.850Z,10.10
2022-12-18T04:18:22.881Z,10.10
2022-12-18T04:20:50.473Z,8.33
2022-12-18T04:23:18.207Z,6.77
2022-12-18T04:25:45.896Z,8.37
2022-12-18T04:28:13.811Z,8.77
2022-12-18T04:30:41.595Z,10.07
2022-12-18T04:33:10.560Z,10.03
2022-12-18T04:35:39.597Z,7.50
2022-12-18T04:38:07.804Z,9.07
2022-12-18T04:40:38.908Z,9.73
2022-12-18T04:43:06.978Z,9.03
2022-12-18T04:45:35.138Z,9.50
2022-12-18T04:48:03.195Z,9.93
2022-12-18T04:50:30.899Z,8.10
2022-12-18T04:53:00.011Z,10.67
2022-12-18T04:55:27.764Z,10.57
2022-12-18T04:57:55.434Z,11.63
2022-12-18T05:00:23.595Z,11.17
2022-12-18T05:02:51.350Z,12.43
2022-12-18T05:05:19.096Z,11.37
2022-12-18T05:07:46.783Z,11.53
2022-12-18T05:10:15.806Z,11.57
2022-12-18T05:12:57.381Z,10.70
2022-12-18T05:15:25.122Z,11.17
2022-12-18T05:17:53.339Z,10.87
2022-12-18T05:20:21.069Z,11.30
2022-12-18T05:22:48.752Z,14.43
2022-12-18T05:25:18.015Z,11.43
2022-12-18T05:27:45.990Z,12.40
2022-12-18T05:30:14.341Z,10.90
2022-12-18T05:32:42.058Z,13.90
2022-12-18T05:35:10.619Z,13.40
2022-12-18T05:37:42.699Z,16.27
2022-12-18T05:40:11.760Z,13.00
2022-12-18T05:42:40.796Z,15.47
2022-12-18T05:45:08.905Z,14.53
2022-12-18T05:47:36.615Z,11.20
2022-12-18T05:50:04.287Z,12.63
2022-12-18T05:52:32.769Z,14.33
2022-12-18T05:55:01.162Z,12.80
2022-12-18T05:57:28.823Z,9.80
2022-12-18T05:59:57.895Z,13.57
2022-12-18T06:02:25.725Z,14.57
2022-12-18T06:04:53.408Z,13.67
2022-12-18T06:07:21.023Z,14.87
2022-12-18T06:09:48.712Z,12.83
2022-12-18T06:12:16.718Z,14.13
2022-12-18T06:14:44.798Z,12.87
2022-12-18T06:17:14.003Z,13.07
2022-12-18T06:19:41.621Z,14.57
2022-12-18T06:22:09.262Z,15.50
2022-12-18T06:24:37.066Z,12.83
2022-12-18T06:27:04.701Z,14.20
2022-12-18T06:29:32.345Z,13.33
2022-12-18T06:32:00.080Z,14.80
2022-12-18T06:34:29.261Z,13.10
2022-12-18T06:36:56.902Z,14.10
2022-12-18T06:39:24.726Z,12.47
2022-12-18T06:41:52.432Z,14.93
2022-12-18T06:44:20.149Z,15.80
2022-12-18T06:46:47.933Z,13.50
2022-12-18T06:49:16.955Z,14.33
2022-12-18T06:51:45.963Z,13.20
2022-12-18T06:54:15.074Z,12.97
2022-12-18T06:56:42.724Z,14.67
2022-12-18T06:59:10.377Z,13.67
2022-12-18T07:01:38.160Z,15.67
2022-12-18T07:04:06.157Z,13.60
2022-12-18T07:06:33.818Z,15.83
2022-12-18T07:09:02.944Z,12.13
2022-12-18T07:11:30.541Z,11.63
2022-12-18T07:14:01.332Z,14.30
2022-12-18T07:16:30.246Z,14.07
2022-12-18T07:18:58.053Z,14.17
2022-12-18T07:21:26.246Z,13.80
2022-12-18T07:23:54.078Z,14.47
2022-12-18T07:26:23.546Z,13.23
2022-12-18T07:28:51.268Z,14.20
2022-12-18T07:31:21.561Z,15.47
2022-12-18T07:33:49.813Z,16.43
2022-12-18T07:36:17.763Z,15.17
2022-12-18T07:38:45.456Z,16.23
2022-12-18T07:41:14.020Z,14.80
2022-12-18T07:43:43.711Z,15.33
2022-12-18T07:46:13.494Z,15.77
2022-12-18T07:48:41.315Z,16.13
2022-12-18T07:51:09.441Z,16.80
2022-12-18T07:53:38.114Z,16.63
2022-12-18T07:58:56.313Z,16.40
2022-12-18T08:01:24.065Z,13.90
2022-12-18T08:03:52.502Z,18.73
2022-12-18T08:06:22.551Z,17.20
2022-12-18T08:08:52.598Z,20.27
2022-12-18T08:11:20.250Z,19.93
2022-12-18T08:13:49.163Z,15.53
2022-12-18T08:16:19.698Z,17.23
2022-12-18T08:18:48.378Z,18.53
2022-12-18T08:21:17.922Z,20.87
2022-12-18T08:23:46.003Z,20.77
2022-12-18T08:26:14.344Z,19.57
2022-12-18T08:28:42.515Z,20.10
2022-12-18T08:31:10.526Z,17.30
2022-12-18T08:33:41.468Z,19.20
2022-12-18T08:36:10.852Z,19.90
2022-12-18T08:38:38.646Z,19.27
2022-12-18T08:41:07.112Z,18.30
2022-12-18T08:43:52.756Z,18.33
2022-12-18T08:46:20.488Z,22.53
2022-12-18T08:48:49.714Z,22.43
2022-12-18T08:51:18.093Z,16.77
2022-12-18T08:53:46.618Z,16.43
2022-12-18T08:56:14.753Z,20.57
2022-12-18T08:58:42.524Z,18.50
2022-12-18T09:01:11.314Z,20.37
2022-12-18T09:03:39.646Z,18.37
2022-12-18T09:06:09.553Z,17.93
2022-12-18T09:08:37.912Z,17.00
2022-12-18T09:11:06.144Z,14.03
2022-12-18T09:13:33.797Z,20.77
2022-12-18T09:16:01.478Z,19.07
2022-12-18T09:18:29.185Z,16.10
2022-12-18T09:20:56.797Z,15.63
2022-12-18T09:23:25.826Z,15.23
2022-12-18T09:25:53.545Z,16.97
2022-12-18T09:28:21.247Z,14.77
2022-12-18T09:30:50.148Z,17.83
2022-12-18T09:33:18.371Z,16.07
2022-12-18T09:35:46.644Z,14.83
2022-12-18T09:38:15.019Z,14.93
2022-12-18T09:40:46.018Z,17.77
2022-12-18T09:43:17.277Z,16.23
2022-12-18T09:45:46.834Z,16.20
2022-12-18T09:48:17.975Z,16.70
2022-12-18T09:50:46.204Z,16.13
2022-12-18T09:53:15.625Z,16.23
2022-12-18T09:55:46.977Z,17.57
2022-12-18T09:58:18.514Z,15.30
2022-12-18T10:00:46.167Z,15.63
2022-12-18T10:03:14.893Z,16.07
2022-12-18T10:05:45.907Z,18.20
2022-12-18T10:08:15.494Z,14.27
2022-12-18T10:10:48.931Z,16.00
2022-12-18T10:13:23.678Z,17.67
2022-12-18T10:16:10.317Z,14.33
2022-12-18T10:18:43.917Z,16.67
2022-12-18T10:21:12.969Z,13.43
2022-12-18T10:23:48.015Z,15.90
2022-12-18T10:26:17.511Z,14.40
2022-12-18T10:28:46.190Z,14.37
2022-12-18T10:31:17.119Z,16.10
2022-12-18T10:33:44.931Z,12.00
2022-12-18T10:36:12.623Z,16.27
2022-12-18T10:38:40.597Z,16.00
2022-12-18T10:41:27.421Z,15.07
2022-12-18T10:44:10.190Z,15.43
2022-12-18T10:46:39.396Z,15.47
2022-12-18T10:49:07.021Z,18.00
2022-12-18T10:51:35.947Z,18.50
2022-12-18T10:54:06.375Z,20.07
2022-12-18T10:56:36.802Z,17.87
2022-12-18T10:59:06.125Z,14.80
2022-12-18T11:01:47.547Z,17.70
2022-12-18T11:04:18.298Z,15.23
2022-12-18T11:06:54.756Z,18.10
2022-12-18T11:09:23.156Z,19.97
2022-12-18T11:11:53.267Z,14.47
2022-12-18T11:14:24.003Z,16.40
2022-12-18T11:17:25.364Z,22.53
2022-12-18T11:19:43.409Z,15.40
2022-12-18T11:22:21.199Z,20.70
2022-12-18T11:25:29.484Z,15.17
2022-12-18T11:27:42.392Z,18.10
2022-12-18T11:30:10.924Z,19.57
2022-12-18T11:32:40.818Z,20.80
2022-12-18T11:35:16.365Z,19.20
2022-12-18T11:37:45.317Z,19.40
2022-12-18T11:40:15.652Z,20.60
2022-12-18T11:42:46.976Z,20.30
2022-12-18T11:45:28.673Z,15.80
2022-12-18T11:48:00.041Z,16.33
2022-12-18T11:50:30.660Z,19.23
2022-12-18T11:53:02.849Z,20.97
2022-12-18T11:55:39.264Z,16.60
2022-12-18T11:58:12.346Z,19.97
2022-12-18T12:00:45.078Z,16.43
2022-12-18T12:03:27.934Z,16.57
2022-12-18T12:06:00.563Z,18.73
2022-12-18T12:08:36.176Z,19.07
2022-12-18T12:11:08.876Z,18.27
2022-12-18T12:13:43.150Z,15.77
2022-12-18T12:16:16.631Z,18.23
2022-12-18T12:18:53.498Z,17.27
2022-12-18T12:21:26.982Z,17.83
2022-12-18T12:23:57.266Z,17.80
2022-12-18T12:26:28.662Z,18.60
2022-12-18T12:29:03.915Z,15.93
2022-12-18T12:31:37.393Z,17.60
2022-12-18T12:34:12.099Z,20.33
2022-12-18T12:36:43.468Z,17.43
2022-12-18T12:39:13.830Z,18.07
2022-12-18T12:41:58.319Z,20.27
2022-12-18T12:44:27.599Z,18.47
2022-12-18T12:46:59.366Z,18.17
2022-12-18T12:49:30.107Z,17.43
2022-12-18T12:52:01.151Z,17.20
2022-12-18T12:54:29.910Z,17.87
2022-12-18T12:57:01.838Z,15.23
2022-12-18T12:59:33.803Z,21.67
2022-12-18T13:02:05.546Z,18.00
2022-12-18T13:04:37.634Z,22.67
2022-12-18T13:07:08.699Z,31.47
2022-12-18T13:09:51.853Z,18.17
2022-12-18T13:12:36.847Z,21.53
2022-12-18T13:15:15.391Z,18.10
2022-12-18T13:17:43.097Z,18.43
2022-12-18T13:20:17.165Z,20.90
2022-12-18T13:22:47.054Z,19.50
2022-12-18T13:25:32.391Z,21.67
2022-12-18T13:28:12.569Z,18.13
2022-12-18T13:30:45.155Z,18.80
2022-12-18T13:33:31.313Z,17.77
2022-12-18T13:36:04.600Z,17.83
2022-12-18T13:38:36.504Z,17.87
2022-12-18T13:41:05.071Z,19.53
2022-12-18T13:43:38.631Z,18.60
2022-12-18T13:46:08.653Z,14.40
2022-12-18T13:48:39.499Z,19.60
2022-12-18T13:51:10.021Z,19.70
2022-12-18T13:53:41.058Z,19.20
2022-12-18T13:56:09.087Z,18.37
2022-12-18T13:58:36.722Z,18.17
2022-12-18T14:01:05.832Z,21.87
2022-12-18T14:03:33.693Z,20.57
2022-12-18T14:06:03.367Z,16.47
2022-12-18T14:08:35.376Z,20.97
2022-12-18T14:11:03.622Z,25.53
2022-12-18T14:13:33.079Z,21.07
2022-12-18T14:16:03.963Z,20.43
2022-12-18T14:18:36.528Z,16.27
2022-12-18T14:21:05.221Z,17.73
2022-12-18T14:23:35.557Z,20.47
2022-12-18T14:26:05.970Z,19.33
2022-12-18T14:28:34.263Z,16.90
2022-12-18T14:31:01.966Z,17.17
2022-12-18T14:33:29.950Z,18.57
2022-12-18T14:35:59.574Z,15.93
2022-12-18T14:38:29.447Z,15.07
2022-12-18T14:40:59.203Z,14.87
2022-12-18T14:43:27.228Z,18.97
2022-12-18T14:45:55.585Z,15.33
2022-12-18T14:48:24.479Z,17.30
2022-12-18T14:50:59.590Z,14.70
2022-12-18T14:53:34.131Z,17.37
2022-12-18T14:56:03.646Z,17.10
2022-12-18T14:58:31.275Z,18.37
2022-12-18T15:00:59.004Z,15.80
2022-12-18T15:03:27.161Z,16.40
2022-12-18T15:05:54.844Z,16.73
2022-12-18T15:08:33.276Z,18.43
2022-12-18T15:11:04.895Z,12.97
2022-12-18T15:13:35.383Z,15.33
2022-12-18T15:16:05.240Z,16.57
2022-12-18T15:18:34.858Z,14.73
2022-12-18T15:21:10.123Z,14.93
2022-12-18T15:23:38.782Z,13.10
2022-12-18T15:26:10.049Z,12.93
2022-12-18T15:28:39.357Z,16.60
2022-12-18T15:31:23.494Z,13.77
2022-12-18T15:34:04.218Z,13.90
2022-12-18T15:36:32.111Z,13.77
2022-12-18T15:39:05.100Z,14.73
2022-12-18T15:41:36.924Z,14.73
2022-12-18T15:44:03.965Z,16.00
2022-12-18T15:46:32.002Z,13.77
2022-12-18T15:49:02.546Z,17.67
2022-12-18T15:51:31.559Z,14.50
2022-12-18T15:54:00.997Z,13.53
2022-12-18T15:56:46.083Z,14.93
2022-12-18T15:59:16.121Z,15.23
2022-12-18T16:01:44.609Z,16.13
2022-12-18T16:04:13.776Z,14.83
2022-12-18T16:07:12.823Z,17.10
2022-12-18T16:09:29.740Z,14.23
2022-12-18T16:11:57.418Z,15.60
2022-12-18T16:14:27.632Z,14.30
2022-12-18T16:16:56.354Z,16.13
2022-12-18T16:19:24.530Z,17.03
2022-12-18T16:21:52.908Z,15.50
2022-12-18T16:24:22.919Z,14.67
2022-12-18T16:26:53.326Z,15.30
2022-12-18T16:29:25.647Z,17.10
2022-12-18T16:31:54.784Z,17.77
2022-12-18T16:34:23.960Z,16.93
2022-12-18T16:36:56.219Z,13.60
2022-12-18T16:39:26.743Z,16.90
2022-12-18T16:41:54.457Z,14.33
2022-12-18T16:44:22.927Z,19.07
2022-12-18T16:46:50.705Z,19.07
2022-12-18T16:49:20.206Z,16.00
2022-12-18T16:51:48.185Z,17.53
2022-12-18T16:54:19.043Z,14.10
2022-12-18T16:56:49.875Z,18.63
2022-12-18T16:59:17.724Z,16.20
2022-12-18T17:01:45.608Z,17.07
2022-12-18T17:04:13.333Z,16.77
2022-12-18T17:06:43.547Z,21.27
2022-12-18T17:09:13.963Z,18.30
2022-12-18T17:11:41.634Z,20.53
2022-12-18T17:14:10.923Z,20.63
2022-12-18T17:16:39.006Z,18.00
2022-12-18T17:19:13.560Z,14.97
2022-12-18T17:21:44.487Z,18.70
2022-12-18T17:24:12.121Z,15.50
2022-12-18T17:26:39.953Z,17.73
2022-12-18T17:29:07.674Z,19.23
2022-12-18T17:31:35.876Z,16.77
2022-12-18T17:34:04.175Z,16.50
2022-12-18T17:36:32.485Z,15.77
2022-12-18T17:39:02.017Z,22.10
2022-12-18T17:41:30.593Z,14.97
2022-12-18T17:43:59.227Z,20.07
2022-12-18T17:46:27.620Z,15.77
2022-12-18T17:48:56.634Z,18.53
2022-12-18T17:51:24.534Z,16.20
2022-12-18T17:53:52.221Z,18.70
2022-12-18T17:56:22.328Z,22.57
2022-12-18T17:58:50.919Z,18.03
2022-12-18T18:01:19.967Z,16.27
2022-12-18T18:03:49.222Z,16.57
2022-12-18T18:06:20.951Z,24.47
2022-12-18T18:08:48.645Z,18.67
2022-12-18T18:11:34.616Z,19.20
2022-12-18T18:14:05.537Z,17.43
2022-12-18T18:16:35.474Z,14.70
2022-12-18T18:19:04.968Z,20.17
2022-12-18T18:21:33.291Z,19.23
2022-12-18T18:24:02.436Z,18.30
2022-12-18T18:26:31.302Z,19.03
2022-12-18T18:28:59.355Z,15.97
2022-12-18T18:31:29.155Z,20.13
2022-12-18T18:33:57.342Z,19.00
2022-12-18T18:36:25.584Z,17.00
2022-12-18T18:38:53.524Z,17.90
2022-12-18T18:41:22.208Z,20.40
2022-12-18T18:43:49.857Z,16.23
2022-12-18T18:46:17.810Z,17.00
2022-12-18T18:48:46.861Z,20.60
2022-12-18T18:51:15.593Z,18.30
2022-12-18T18:53:50.105Z,18.17
2022-12-18T18:59:06.505Z,22.50
2022-12-18T19:01:34.277Z,20.03
2022-12-18T19:04:06.768Z,17.17
2022-12-18T19:06:34.503Z,20.00
2022-12-18T19:09:02.972Z,19.47
2022-12-18T19:11:48.547Z,19.53
2022-12-18T19:14:16.744Z,17.67
2022-12-18T19:16:45.813Z,22.67
2022-12-18T19:19:17.577Z,16.90
2022-12-18T19:21:45.522Z,20.03
2022-12-18T19:24:13.198Z,17.93
2022-12-18T19:26:40.930Z,19.97
2022-12-18T19:29:09.782Z,18.20
2022-12-18T19:31:37.823Z,20.63
2022-12-18T19:34:06.918Z,24.23
2022-12-18T19:36:36.690Z,20.77
2022-12-18T19:39:08.920Z,19.30
2022-12-18T19:41:36.519Z,19.50
2022-12-18T19:44:08.148Z,17.10
2022-12-18T19:46:37.158Z,19.83
2022-12-18T19:49:09.656Z,20.97
2022-12-18T19:51:39.654Z,21.93
2022-12-18T19:54:07.263Z,16.13
2022-12-18T19:56:35.815Z,18.93
2022-12-18T19:59:04.138Z,23.67
2022-12-18T20:01:32.385Z,18.80
2022-12-18T20:04:00.536Z,18.33
2022-12-18T20:06:31.046Z,20.07
2022-12-18T20:09:01.376Z,18.97
2022-12-18T20:11:29.474Z,21.93
2022-12-18T20:13:57.301Z,17.00
2022-12-18T20:16:25.114Z,19.60
2022-12-18T20:18:56.129Z,16.37
2022-12-18T20:21:24.071Z,20.63
2022-12-18T20:23:52.029Z,18.57
2022-12-18T20:26:21.063Z,18.10
2022-12-18T20:28:48.774Z,20.60
2022-12-18T20:31:16.400Z,21.87
2022-12-18T20:33:44.692Z,19.80
2022-12-18T20:36:21.442Z,20.03
2022-12-18T20:38:51.181Z,21.40
2022-12-18T20:41:24.449Z,17.27
2022-12-18T20:43:53.463Z,15.70
2022-12-18T20:46:21.123Z,17.33
2022-12-18T20:48:48.942Z,21.80
2022-12-18T20:51:17.846Z,19.03
2022-12-18T20:53:46.299Z,19.87
2022-12-18T20:56:20.149Z,19.77
2022-12-18T20:58:49.388Z,19.10
2022-12-18T21:01:19.610Z,26.23
2022-12-18T21:03:48.286Z,20.27
2022-12-18T21:06:16.717Z,19.13
2022-12-18T21:08:44.450Z,21.07
2022-12-18T21:11:36.518Z,20.13
2022-12-18T21:14:03.301Z,18.23
2022-12-18T21:16:33.061Z,20.97
2022-12-18T21:19:00.732Z,20.87
2022-12-18T21:21:28.579Z,18.93
2022-12-18T21:23:56.236Z,18.10
2022-12-18T21:26:24.680Z,18.43
2022-12-18T21:28:55.138Z,18.83
2022-12-18T21:31:23.581Z,23.87
2022-12-18T21:33:53.179Z,19.43
2022-12-18T21:36:26.010Z,21.67
2022-12-18T21:38:54.155Z,19.97
2022-12-18T21:41:42.338Z,19.77
2022-12-18T21:44:12.715Z,20.67
2022-12-18T21:46:41.468Z,20.20
2022-12-18T21:49:10.970Z,21.80
2022-12-18T21:51:38.976Z,21.97
2022-12-18T21:54:06.841Z,19.73
2022-12-18T21:56:44.442Z,20.73
2022-12-18T21:59:13.190Z,21.83
2022-12-18T22:01:41.004Z,19.93
2022-12-18T22:04:10.318Z,18.43
2022-12-18T22:06:38.394Z,20.67
2022-12-18T22:09:06.126Z,19.23
2022-12-18T22:11:33.961Z,22.87
2022-12-18T22:14:01.638Z,18.77
2022-12-18T22:16:30.182Z,19.63
2022-12-18T22:18:57.831Z,22.90
2022-12-18T22:21:29.544Z,20.50
2022-12-18T22:23:58.041Z,21.23
2022-12-18T22:26:26.684Z,20.27
2022-12-18T22:29:12.183Z,18.83
2022-12-18T22:31:40.125Z,20.97
2022-12-18T22:34:08.268Z,19.67
2022-12-18T22:36:38.315Z,19.23
2022-12-18T22:39:07.550Z,19.97
2022-12-18T22:41:35.689Z,19.63
2022-12-18T22:44:03.344Z,19.50
2022-12-18T22:46:32.996Z,19.00
2022-12-18T22:49:00.676Z,20.23
2022-12-18T22:51:28.382Z,19.90
2022-12-18T22:53:57.389Z,18.27
2022-12-18T22:56:25.142Z,18.33
2022-12-18T22:58:53.334Z,19.63
2022-12-18T23:01:22.275Z,18.37
2022-12-18T23:03:50.485Z,21.20
2022-12-18T23:06:18.527Z,22.13
2022-12-18T23:08:47.910Z,21.23
2022-12-18T23:11:20.146Z,21.30
2022-12-18T23:13:47.981Z,19.83
2022-12-18T23:16:16.282Z,20.00
2022-12-18T23:18:44.182Z,20.23
2022-12-18T23:21:12.879Z,19.00
2022-12-18T23:23:41.915Z,19.87
2022-12-18T23:26:11.155Z,20.60
2022-12-18T23:28:40.646Z,20.33
2022-12-18T23:31:09.191Z,19.80
2022-12-18T23:33:36.859Z,22.63
2022-12-18T23:36:05.191Z,20.27
2022-12-18T23:38:33.263Z,22.90
2022-12-18T23:41:01.118Z,24.03
2022-12-18T23:43:29.655Z,21.23
2022-12-18T23:45:58.700Z,19.47
2022-12-18T23:48:26.325Z,20.43
2022-12-18T23:50:53.959Z,20.87
2022-12-18T23:53:21.617Z,22.73
2022-12-18T23:55:49.548Z,18.10
2022-12-18T23:58:20.180Z,22.00
